sensor_id;sensor_type;location;lat;lon;timestamp;P1;durP1;ratioP1;P2;durP2;ratioP2
43540;SDS011;29549;40.386;-3.710;2023-12-28T00:00:05;30.07;;;24.20;;
43540;SDS011;29549;40.386;-3.710;2023-12-28T00:00:17;31.88;;;24.98;;
43540;SDS011;29549;40.386;-3.710;2023-12-28T00:00:28;32.60;;;24.58;;
43540;SDS011;29549;40.386;-3.710;2023-12-28T00:00:39;32.35;;;23.88;;
43540;SDS011;29549;40.386;-3.710;2023-12-28T00:00:49;30.85;;;23.27;;
43540;SDS011;29549;40.386;-3.710;2023-12-28T00:01:00;31.27;;;23.35;;
43540;SDS011;29549;40.386;-3.710;2023-12-28T00:01:11;30.30;;;22.38;;
43540;SDS011;29549;40.386;-3.710;2023-12-28T00:01:22;30.23;;;22.55;;
43540;SDS011;29549;40.386;-3.710;2023-12-28T00:01:33;29.73;;;22.83;;
43540;SDS011;29549;40.386;-3.710;2023-12-28T00:01:44;31.70;;;23.75;;
43540;SDS011;29549;40.386;-3.710;2023-12-28T00:01:55;32.10;;;23.70;;
43540;SDS011;29549;40.386;-3.710;2023-12-28T00:02:06;31.88;;;23.63;;
43540;SDS011;29549;40.386;-3.710;2023-12-28T00:02:17;32.08;;;23.50;;
43540;SDS011;29549;40.386;-3.710;2023-12-28T00:02:27;31.87;;;23.97;;
43540;SDS011;29549;40.386;-3.710;2023-12-28T00:02:38;32.20;;;24.20;;
43540;SDS011;29549;40.386;-3.710;2023-12-28T00:02:50;32.30;;;24.42;;
43540;SDS011;29549;40.386;-3.710;2023-12-28T00:03:01;31.80;;;23.53;;
43540;SDS011;29549;40.386;-3.710;2023-12-28T00:03:12;31.02;;;22.95;;
43540;SDS011;29549;40.386;-3.710;2023-12-28T00:03:23;30.13;;;22.77;;
43540;SDS011;29549;40.386;-3.710;2023-12-28T00:03:34;30.10;;;22.77;;
43540;SDS011;29549;40.386;-3.710;2023-12-28T00:03:44;30.30;;;22.90;;
43540;SDS011;29549;40.386;-3.710;2023-12-28T00:03:55;31.40;;;23.13;;
43540;SDS011;29549;40.386;-3.710;2023-12-28T00:04:06;31.73;;;23.40;;
43540;SDS011;29549;40.386;-3.710;2023-12-28T00:04:17;30.90;;;22.85;;
43540;SDS011;29549;40.386;-3.710;2023-12-28T00:04:27;30.05;;;22.95;;
43540;SDS011;29549;40.386;-3.710;2023-12-28T00:04:38;30.25;;;22.63;;
43540;SDS011;29549;40.386;-3.710;2023-12-28T00:04:49;32.60;;;23.42;;
43540;SDS011;29549;40.386;-3.710;2023-12-28T00:05:00;34.17;;;24.27;;
43540;SDS011;29549;40.386;-3.710;2023-12-28T00:05:10;35.13;;;24.50;;
43540;SDS011;29549;40.386;-3.710;2023-12-28T00:05:21;34.05;;;24.88;;
43540;SDS011;29549;40.386;-3.710;2023-12-28T00:05:32;32.30;;;25.05;;
43540;SDS011;29549;40.386;-3.710;2023-12-28T00:05:43;31.10;;;25.08;;
43540;SDS011;29549;40.386;-3.710;2023-12-28T00:05:54;32.33;;;24.98;;
43540;SDS011;29549;40.386;-3.710;2023-12-28T00:06:04;33.17;;;24.98;;
43540;SDS011;29549;40.386;-3.710;2023-12-28T00:06:16;35.35;;;25.05;;
43540;SDS011;29549;40.386;-3.710;2023-12-28T00:06:27;35.08;;;25.17;;
43540;SDS011;29549;40.386;-3.710;2023-12-28T00:06:37;33.85;;;24.55;;
43540;SDS011;29549;40.386;-3.710;2023-12-28T00:06:48;30.77;;;23.65;;
43540;SDS011;29549;40.386;-3.710;2023-12-28T00:06:59;30.57;;;23.20;;
43540;SDS011;29549;40.386;-3.710;2023-12-28T00:07:10;30.98;;;23.92;;
43540;SDS011;29549;40.386;-3.710;2023-12-28T00:07:22;32.17;;;24.73;;
43540;SDS011;29549;40.386;-3.710;2023-12-28T00:07:33;32.47;;;24.73;;
43540;SDS011;29549;40.386;-3.710;2023-12-28T00:07:44;32.95;;;24.83;;
43540;SDS011;29549;40.386;-3.710;2023-12-28T00:07:54;32.28;;;24.33;;
43540;SDS011;29549;40.386;-3.710;2023-12-28T00:08:07;32.95;;;24.38;;
43540;SDS011;29549;40.386;-3.710;2023-12-28T00:08:18;32.50;;;24.83;;
43540;SDS011;29549;40.386;-3.710;2023-12-28T00:08:29;33.50;;;25.48;;
43540;SDS011;29549;40.386;-3.710;2023-12-28T00:08:42;32.30;;;25.58;;
43540;SDS011;29549;40.386;-3.710;2023-12-28T00:08:53;32.95;;;25.55;;
43540;SDS011;29549;40.386;-3.710;2023-12-28T00:09:04;33.05;;;25.38;;
43540;SDS011;29549;40.386;-3.710;2023-12-28T00:09:15;33.67;;;25.27;;
43540;SDS011;29549;40.386;-3.710;2023-12-28T00:09:25;32.37;;;24.87;;
43540;SDS011;29549;40.386;-3.710;2023-12-28T00:09:36;32.00;;;24.70;;
43540;SDS011;29549;40.386;-3.710;2023-12-28T00:09:47;32.65;;;25.65;;
43540;SDS011;29549;40.386;-3.710;2023-12-28T00:09:58;35.80;;;26.95;;
43540;SDS011;29549;40.386;-3.710;2023-12-28T00:10:08;36.30;;;27.17;;
43540;SDS011;29549;40.386;-3.710;2023-12-28T00:10:20;35.80;;;27.08;;
43540;SDS011;29549;40.386;-3.710;2023-12-28T00:10:31;36.00;;;26.60;;
43540;SDS011;29549;40.386;-3.710;2023-12-28T00:10:41;35.80;;;26.67;;
43540;SDS011;29549;40.386;-3.710;2023-12-28T00:10:52;36.17;;;26.58;;
43540;SDS011;29549;40.386;-3.710;2023-12-28T00:11:03;36.25;;;26.40;;
43540;SDS011;29549;40.386;-3.710;2023-12-28T00:11:14;36.25;;;25.90;;
43540;SDS011;29549;40.386;-3.710;2023-12-28T00:11:25;32.87;;;24.87;;
43540;SDS011;29549;40.386;-3.710;2023-12-28T00:11:35;32.72;;;25.02;;
43540;SDS011;29549;40.386;-3.710;2023-12-28T00:11:46;33.90;;;24.95;;
43540;SDS011;29549;40.386;-3.710;2023-12-28T00:11:58;35.35;;;25.02;;
43540;SDS011;29549;40.386;-3.710;2023-12-28T00:12:09;32.58;;;24.15;;
43540;SDS011;29549;40.386;-3.710;2023-12-28T00:12:20;30.40;;;24.05;;
43540;SDS011;29549;40.386;-3.710;2023-12-28T00:12:32;30.77;;;24.60;;
43540;SDS011;29549;40.386;-3.710;2023-12-28T00:12:43;32.05;;;24.77;;
43540;SDS011;29549;40.386;-3.710;2023-12-28T00:12:54;34.08;;;24.85;;
43540;SDS011;29549;40.386;-3.710;2023-12-28T00:13:04;34.88;;;24.70;;
43540;SDS011;29549;40.386;-3.710;2023-12-28T00:13:15;33.45;;;24.40;;
43540;SDS011;29549;40.386;-3.710;2023-12-28T00:13:26;33.83;;;24.30;;
43540;SDS011;29549;40.386;-3.710;2023-12-28T00:13:37;33.60;;;24.33;;
43540;SDS011;29549;40.386;-3.710;2023-12-28T00:13:47;34.55;;;25.17;;
43540;SDS011;29549;40.386;-3.710;2023-12-28T00:13:58;35.50;;;25.63;;
43540;SDS011;29549;40.386;-3.710;2023-12-28T00:14:09;35.60;;;26.27;;
43540;SDS011;29549;40.386;-3.710;2023-12-28T00:14:20;33.92;;;25.88;;
43540;SDS011;29549;40.386;-3.710;2023-12-28T00:14:31;33.17;;;25.88;;
43540;SDS011;29549;40.386;-3.710;2023-12-28T00:14:41;34.03;;;25.80;;
43540;SDS011;29549;40.386;-3.710;2023-12-28T00:14:52;33.47;;;25.75;;
43540;SDS011;29549;40.386;-3.710;2023-12-28T00:15:03;33.25;;;25.30;;
43540;SDS011;29549;40.386;-3.710;2023-12-28T00:15:14;30.98;;;24.63;;
43540;SDS011;29549;40.386;-3.710;2023-12-28T00:15:25;32.38;;;24.60;;
43540;SDS011;29549;40.386;-3.710;2023-12-28T00:15:36;31.02;;;24.35;;
43540;SDS011;29549;40.386;-3.710;2023-12-28T00:15:47;30.63;;;23.92;;
43540;SDS011;29549;40.386;-3.710;2023-12-28T00:15:57;29.63;;;23.05;;
43540;SDS011;29549;40.386;-3.710;2023-12-28T00:16:08;30.02;;;23.17;;
43540;SDS011;29549;40.386;-3.710;2023-12-28T00:16:19;30.83;;;23.27;;
43540;SDS011;29549;40.386;-3.710;2023-12-28T00:16:30;30.60;;;23.33;;
43540;SDS011;29549;40.386;-3.710;2023-12-28T00:16:46;30.02;;;23.30;;
43540;SDS011;29549;40.386;-3.710;2023-12-28T00:16:57;30.05;;;23.42;;
43540;SDS011;29549;40.386;-3.710;2023-12-28T00:17:08;30.83;;;23.85;;
43540;SDS011;29549;40.386;-3.710;2023-12-28T00:17:19;31.53;;;23.90;;
43540;SDS011;29549;40.386;-3.710;2023-12-28T00:17:29;30.63;;;23.77;;
43540;SDS011;29549;40.386;-3.710;2023-12-28T00:17:40;29.85;;;23.48;;
43540;SDS011;29549;40.386;-3.710;2023-12-28T00:17:51;29.30;;;23.10;;
43540;SDS011;29549;40.386;-3.710;2023-12-28T00:18:02;29.55;;;22.58;;
43540;SDS011;29549;40.386;-3.710;2023-12-28T00:18:13;29.40;;;22.25;;
43540;SDS011;29549;40.386;-3.710;2023-12-28T00:18:24;29.63;;;22.50;;
43540;SDS011;29549;40.386;-3.710;2023-12-28T00:18:35;30.20;;;22.80;;
43540;SDS011;29549;40.386;-3.710;2023-12-28T00:18:46;30.05;;;22.63;;
43540;SDS011;29549;40.386;-3.710;2023-12-28T00:18:57;29.73;;;23.20;;
43540;SDS011;29549;40.386;-3.710;2023-12-28T00:19:07;29.60;;;23.52;;
43540;SDS011;29549;40.386;-3.710;2023-12-28T00:19:18;30.07;;;23.80;;
43540;SDS011;29549;40.386;-3.710;2023-12-28T00:19:31;29.55;;;23.00;;
43540;SDS011;29549;40.386;-3.710;2023-12-28T00:19:41;28.70;;;22.80;;
43540;SDS011;29549;40.386;-3.710;2023-12-28T00:19:52;27.13;;;21.77;;
43540;SDS011;29549;40.386;-3.710;2023-12-28T00:20:03;27.07;;;22.03;;
43540;SDS011;29549;40.386;-3.710;2023-12-28T00:20:14;28.67;;;22.77;;
43540;SDS011;29549;40.386;-3.710;2023-12-28T00:20:25;31.30;;;24.03;;
43540;SDS011;29549;40.386;-3.710;2023-12-28T00:20:36;33.30;;;24.07;;
43540;SDS011;29549;40.386;-3.710;2023-12-28T00:20:46;33.72;;;24.13;;
43540;SDS011;29549;40.386;-3.710;2023-12-28T00:20:57;32.08;;;23.73;;
43540;SDS011;29549;40.386;-3.710;2023-12-28T00:21:08;31.77;;;24.00;;
43540;SDS011;29549;40.386;-3.710;2023-12-28T00:21:18;31.23;;;23.97;;
43540;SDS011;29549;40.386;-3.710;2023-12-28T00:21:30;32.67;;;24.85;;
43540;SDS011;29549;40.386;-3.710;2023-12-28T00:21:40;32.83;;;24.90;;
43540;SDS011;29549;40.386;-3.710;2023-12-28T00:21:51;33.73;;;24.70;;
43540;SDS011;29549;40.386;-3.710;2023-12-28T00:22:02;33.58;;;24.40;;
43540;SDS011;29549;40.386;-3.710;2023-12-28T00:22:13;31.75;;;23.90;;
43540;SDS011;29549;40.386;-3.710;2023-12-28T00:22:24;30.88;;;23.85;;
43540;SDS011;29549;40.386;-3.710;2023-12-28T00:22:34;32.33;;;23.92;;
43540;SDS011;29549;40.386;-3.710;2023-12-28T00:22:47;33.15;;;24.23;;
43540;SDS011;29549;40.386;-3.710;2023-12-28T00:22:58;30.13;;;23.52;;
43540;SDS011;29549;40.386;-3.710;2023-12-28T00:23:09;30.50;;;23.00;;
43540;SDS011;29549;40.386;-3.710;2023-12-28T00:23:20;31.70;;;23.10;;
43540;SDS011;29549;40.386;-3.710;2023-12-28T00:23:30;33.97;;;23.80;;
43540;SDS011;29549;40.386;-3.710;2023-12-28T00:23:41;33.17;;;23.85;;
43540;SDS011;29549;40.386;-3.710;2023-12-28T00:23:52;31.25;;;23.80;;
43540;SDS011;29549;40.386;-3.710;2023-12-28T00:24:03;30.50;;;23.67;;
43540;SDS011;29549;40.386;-3.710;2023-12-28T00:24:15;31.45;;;23.58;;
43540;SDS011;29549;40.386;-3.710;2023-12-28T00:24:26;32.67;;;24.13;;
43540;SDS011;29549;40.386;-3.710;2023-12-28T00:24:36;33.63;;;24.67;;
43540;SDS011;29549;40.386;-3.710;2023-12-28T00:24:47;32.63;;;24.63;;
43540;SDS011;29549;40.386;-3.710;2023-12-28T00:24:58;32.10;;;24.50;;
43540;SDS011;29549;40.386;-3.710;2023-12-28T00:25:09;32.30;;;24.73;;
43540;SDS011;29549;40.386;-3.710;2023-12-28T00:25:19;32.15;;;24.25;;
43540;SDS011;29549;40.386;-3.710;2023-12-28T00:25:30;32.42;;;24.27;;
43540;SDS011;29549;40.386;-3.710;2023-12-28T00:25:41;35.37;;;25.17;;
43540;SDS011;29549;40.386;-3.710;2023-12-28T00:25:52;35.55;;;25.83;;
43540;SDS011;29549;40.386;-3.710;2023-12-28T00:26:03;36.45;;;26.27;;
43540;SDS011;29549;40.386;-3.710;2023-12-28T00:26:13;35.03;;;26.05;;
43540;SDS011;29549;40.386;-3.710;2023-12-28T00:26:24;34.17;;;25.52;;
43540;SDS011;29549;40.386;-3.710;2023-12-28T00:26:35;32.58;;;24.95;;
43540;SDS011;29549;40.386;-3.710;2023-12-28T00:26:46;34.08;;;25.15;;
43540;SDS011;29549;40.386;-3.710;2023-12-28T00:26:57;34.30;;;25.37;;
43540;SDS011;29549;40.386;-3.710;2023-12-28T00:27:07;33.67;;;24.88;;
43540;SDS011;29549;40.386;-3.710;2023-12-28T00:27:18;32.13;;;24.42;;
43540;SDS011;29549;40.386;-3.710;2023-12-28T00:27:29;32.00;;;24.33;;
43540;SDS011;29549;40.386;-3.710;2023-12-28T00:27:40;32.38;;;24.75;;
43540;SDS011;29549;40.386;-3.710;2023-12-28T00:27:51;30.90;;;24.42;;
43540;SDS011;29549;40.386;-3.710;2023-12-28T00:28:01;30.53;;;24.17;;
43540;SDS011;29549;40.386;-3.710;2023-12-28T00:28:12;32.25;;;24.33;;
43540;SDS011;29549;40.386;-3.710;2023-12-28T00:28:23;32.80;;;24.20;;
43540;SDS011;29549;40.386;-3.710;2023-12-28T00:28:34;33.53;;;24.83;;
43540;SDS011;29549;40.386;-3.710;2023-12-28T00:28:45;33.03;;;24.95;;
43540;SDS011;29549;40.386;-3.710;2023-12-28T00:28:55;32.47;;;24.98;;
43540;SDS011;29549;40.386;-3.710;2023-12-28T00:29:06;32.95;;;24.90;;
43540;SDS011;29549;40.386;-3.710;2023-12-28T00:29:17;32.00;;;24.83;;
43540;SDS011;29549;40.386;-3.710;2023-12-28T00:29:28;33.10;;;25.17;;
43540;SDS011;29549;40.386;-3.710;2023-12-28T00:29:39;33.65;;;24.85;;
43540;SDS011;29549;40.386;-3.710;2023-12-28T00:29:51;34.03;;;25.38;;
43540;SDS011;29549;40.386;-3.710;2023-12-28T00:30:02;34.00;;;25.80;;
43540;SDS011;29549;40.386;-3.710;2023-12-28T00:30:13;35.40;;;26.65;;
43540;SDS011;29549;40.386;-3.710;2023-12-28T00:30:24;33.90;;;26.30;;
43540;SDS011;29549;40.386;-3.710;2023-12-28T00:30:34;33.13;;;25.80;;
43540;SDS011;29549;40.386;-3.710;2023-12-28T00:30:45;32.72;;;25.60;;
43540;SDS011;29549;40.386;-3.710;2023-12-28T00:30:56;32.72;;;25.42;;
43540;SDS011;29549;40.386;-3.710;2023-12-28T00:31:06;33.20;;;25.00;;
43540;SDS011;29549;40.386;-3.710;2023-12-28T00:31:19;32.42;;;24.48;;
43540;SDS011;29549;40.386;-3.710;2023-12-28T00:31:30;33.45;;;24.45;;
43540;SDS011;29549;40.386;-3.710;2023-12-28T00:31:40;33.50;;;24.65;;
43540;SDS011;29549;40.386;-3.710;2023-12-28T00:31:51;33.67;;;24.87;;
43540;SDS011;29549;40.386;-3.710;2023-12-28T00:32:02;32.80;;;24.70;;
43540;SDS011;29549;40.386;-3.710;2023-12-28T00:32:13;32.00;;;24.75;;
43540;SDS011;29549;40.386;-3.710;2023-12-28T00:32:23;33.30;;;24.38;;
43540;SDS011;29549;40.386;-3.710;2023-12-28T00:32:34;33.90;;;24.98;;
43540;SDS011;29549;40.386;-3.710;2023-12-28T00:32:45;34.40;;;24.80;;
43540;SDS011;29549;40.386;-3.710;2023-12-28T00:32:56;33.77;;;24.93;;
43540;SDS011;29549;40.386;-3.710;2023-12-28T00:33:06;34.45;;;24.88;;
43540;SDS011;29549;40.386;-3.710;2023-12-28T00:33:17;35.90;;;25.17;;
43540;SDS011;29549;40.386;-3.710;2023-12-28T00:33:28;35.38;;;25.17;;
43540;SDS011;29549;40.386;-3.710;2023-12-28T00:33:39;32.73;;;24.00;;
43540;SDS011;29549;40.386;-3.710;2023-12-28T00:33:49;31.37;;;23.97;;
43540;SDS011;29549;40.386;-3.710;2023-12-28T00:34:00;31.63;;;24.35;;
43540;SDS011;29549;40.386;-3.710;2023-12-28T00:34:11;32.08;;;24.48;;
43540;SDS011;29549;40.386;-3.710;2023-12-28T00:34:22;32.10;;;24.13;;
43540;SDS011;29549;40.386;-3.710;2023-12-28T00:34:33;31.70;;;23.65;;
43540;SDS011;29549;40.386;-3.710;2023-12-28T00:34:43;31.73;;;23.80;;
43540;SDS011;29549;40.386;-3.710;2023-12-28T00:34:54;32.57;;;24.00;;
43540;SDS011;29549;40.386;-3.710;2023-12-28T00:35:05;30.83;;;23.40;;
43540;SDS011;29549;40.386;-3.710;2023-12-28T00:35:16;31.52;;;22.60;;
43540;SDS011;29549;40.386;-3.710;2023-12-28T00:35:27;31.55;;;22.48;;
43540;SDS011;29549;40.386;-3.710;2023-12-28T00:35:37;31.73;;;23.00;;
43540;SDS011;29549;40.386;-3.710;2023-12-28T00:35:48;31.27;;;23.45;;
43540;SDS011;29549;40.386;-3.710;2023-12-28T00:35:59;32.90;;;24.00;;
43540;SDS011;29549;40.386;-3.710;2023-12-28T00:36:10;33.78;;;24.02;;
43540;SDS011;29549;40.386;-3.710;2023-12-28T00:36:20;34.33;;;24.48;;
43540;SDS011;29549;40.386;-3.710;2023-12-28T00:36:31;33.67;;;24.30;;
43540;SDS011;29549;40.386;-3.710;2023-12-28T00:36:42;33.33;;;24.05;;
43540;SDS011;29549;40.386;-3.710;2023-12-28T00:36:53;32.03;;;23.47;;
43540;SDS011;29549;40.386;-3.710;2023-12-28T00:37:03;32.20;;;23.27;;
43540;SDS011;29549;40.386;-3.710;2023-12-28T00:37:14;32.10;;;23.17;;
43540;SDS011;29549;40.386;-3.710;2023-12-28T00:37:25;30.83;;;22.65;;
43540;SDS011;29549;40.386;-3.710;2023-12-28T00:37:35;30.60;;;22.17;;
43540;SDS011;29549;40.386;-3.710;2023-12-28T00:37:46;31.77;;;22.07;;
43540;SDS011;29549;40.386;-3.710;2023-12-28T00:37:58;31.75;;;22.10;;
43540;SDS011;29549;40.386;-3.710;2023-12-28T00:38:08;30.77;;;22.67;;
43540;SDS011;29549;40.386;-3.710;2023-12-28T00:38:19;29.27;;;22.83;;
43540;SDS011;29549;40.386;-3.710;2023-12-28T00:38:30;29.80;;;23.03;;
43540;SDS011;29549;40.386;-3.710;2023-12-28T00:38:41;30.42;;;23.15;;
43540;SDS011;29549;40.386;-3.710;2023-12-28T00:38:52;32.08;;;23.60;;
43540;SDS011;29549;40.386;-3.710;2023-12-28T00:39:03;31.70;;;23.40;;
43540;SDS011;29549;40.386;-3.710;2023-12-28T00:39:13;32.92;;;23.55;;
43540;SDS011;29549;40.386;-3.710;2023-12-28T00:39:25;33.45;;;23.15;;
43540;SDS011;29549;40.386;-3.710;2023-12-28T00:39:35;32.05;;;22.88;;
43540;SDS011;29549;40.386;-3.710;2023-12-28T00:39:46;30.10;;;22.80;;
43540;SDS011;29549;40.386;-3.710;2023-12-28T00:39:59;28.90;;;22.35;;
43540;SDS011;29549;40.386;-3.710;2023-12-28T00:40:10;30.67;;;22.92;;
43540;SDS011;29549;40.386;-3.710;2023-12-28T00:40:21;31.25;;;23.35;;
43540;SDS011;29549;40.386;-3.710;2023-12-28T00:40:32;34.35;;;24.58;;
43540;SDS011;29549;40.386;-3.710;2023-12-28T00:40:43;33.22;;;23.63;;
43540;SDS011;29549;40.386;-3.710;2023-12-28T00:40:53;32.38;;;23.77;;
43540;SDS011;29549;40.386;-3.710;2023-12-28T00:41:04;31.47;;;23.57;;
43540;SDS011;29549;40.386;-3.710;2023-12-28T00:41:15;33.45;;;24.25;;
43540;SDS011;29549;40.386;-3.710;2023-12-28T00:41:26;33.83;;;24.08;;
43540;SDS011;29549;40.386;-3.710;2023-12-28T00:41:37;35.30;;;24.48;;
43540;SDS011;29549;40.386;-3.710;2023-12-28T00:41:47;34.35;;;24.10;;
43540;SDS011;29549;40.386;-3.710;2023-12-28T00:41:58;32.83;;;24.13;;
43540;SDS011;29549;40.386;-3.710;2023-12-28T00:42:09;30.13;;;23.37;;
43540;SDS011;29549;40.386;-3.710;2023-12-28T00:42:20;29.30;;;23.02;;
43540;SDS011;29549;40.386;-3.710;2023-12-28T00:42:31;31.10;;;22.50;;
43540;SDS011;29549;40.386;-3.710;2023-12-28T00:42:41;30.75;;;22.17;;
43540;SDS011;29549;40.386;-3.710;2023-12-28T00:42:52;30.77;;;22.70;;
43540;SDS011;29549;40.386;-3.710;2023-12-28T00:43:03;28.25;;;22.65;;
43540;SDS011;29549;40.386;-3.710;2023-12-28T00:43:14;27.80;;;22.10;;
43540;SDS011;29549;40.386;-3.710;2023-12-28T00:43:24;28.38;;;22.27;;
43540;SDS011;29549;40.386;-3.710;2023-12-28T00:43:35;31.02;;;23.13;;
43540;SDS011;29549;40.386;-3.710;2023-12-28T00:43:46;33.38;;;23.95;;
43540;SDS011;29549;40.386;-3.710;2023-12-28T00:43:57;32.53;;;23.17;;
43540;SDS011;29549;40.386;-3.710;2023-12-28T00:44:07;32.03;;;23.02;;
43540;SDS011;29549;40.386;-3.710;2023-12-28T00:44:19;32.38;;;23.38;;
43540;SDS011;29549;40.386;-3.710;2023-12-28T00:44:30;34.17;;;24.10;;
43540;SDS011;29549;40.386;-3.710;2023-12-28T00:44:41;33.85;;;23.77;;
43540;SDS011;29549;40.386;-3.710;2023-12-28T00:44:51;31.73;;;22.98;;
43540;SDS011;29549;40.386;-3.710;2023-12-28T00:45:03;30.80;;;22.77;;
43540;SDS011;29549;40.386;-3.710;2023-12-28T00:45:14;31.30;;;22.80;;
43540;SDS011;29549;40.386;-3.710;2023-12-28T00:45:25;32.65;;;23.30;;
43540;SDS011;29549;40.386;-3.710;2023-12-28T00:45:36;32.22;;;23.52;;
43540;SDS011;29549;40.386;-3.710;2023-12-28T00:45:46;32.58;;;23.50;;
43540;SDS011;29549;40.386;-3.710;2023-12-28T00:45:57;32.33;;;22.92;;
43540;SDS011;29549;40.386;-3.710;2023-12-28T00:46:08;31.50;;;22.65;;
43540;SDS011;29549;40.386;-3.710;2023-12-28T00:46:18;29.70;;;22.57;;
43540;SDS011;29549;40.386;-3.710;2023-12-28T00:46:29;29.42;;;22.58;;
43540;SDS011;29549;40.386;-3.710;2023-12-28T00:46:40;30.40;;;22.75;;
43540;SDS011;29549;40.386;-3.710;2023-12-28T00:46:51;30.67;;;23.20;;
43540;SDS011;29549;40.386;-3.710;2023-12-28T00:47:01;30.52;;;23.13;;
43540;SDS011;29549;40.386;-3.710;2023-12-28T00:47:12;31.03;;;23.03;;
43540;SDS011;29549;40.386;-3.710;2023-12-28T00:47:23;30.55;;;23.17;;
43540;SDS011;29549;40.386;-3.710;2023-12-28T00:47:34;31.08;;;23.42;;
43540;SDS011;29549;40.386;-3.710;2023-12-28T00:47:44;31.42;;;23.60;;
43540;SDS011;29549;40.386;-3.710;2023-12-28T00:47:55;32.35;;;23.50;;
43540;SDS011;29549;40.386;-3.710;2023-12-28T00:48:06;31.73;;;23.08;;
43540;SDS011;29549;40.386;-3.710;2023-12-28T00:48:17;29.65;;;22.17;;
43540;SDS011;29549;40.386;-3.710;2023-12-28T00:48:28;29.77;;;22.27;;
43540;SDS011;29549;40.386;-3.710;2023-12-28T00:48:39;31.20;;;23.10;;
43540;SDS011;29549;40.386;-3.710;2023-12-28T00:48:49;33.60;;;23.65;;
43540;SDS011;29549;40.386;-3.710;2023-12-28T00:49:00;31.73;;;23.00;;
43540;SDS011;29549;40.386;-3.710;2023-12-28T00:49:11;31.38;;;22.52;;
43540;SDS011;29549;40.386;-3.710;2023-12-28T00:49:22;30.10;;;21.70;;
43540;SDS011;29549;40.386;-3.710;2023-12-28T00:49:32;29.98;;;21.27;;
43540;SDS011;29549;40.386;-3.710;2023-12-28T00:49:43;30.15;;;21.77;;
43540;SDS011;29549;40.386;-3.710;2023-12-28T00:49:54;29.33;;;21.98;;
43540;SDS011;29549;40.386;-3.710;2023-12-28T00:50:05;30.33;;;22.73;;
43540;SDS011;29549;40.386;-3.710;2023-12-28T00:50:16;29.60;;;22.17;;
43540;SDS011;29549;40.386;-3.710;2023-12-28T00:50:27;30.48;;;22.15;;
43540;SDS011;29549;40.386;-3.710;2023-12-28T00:50:41;31.90;;;22.67;;
43540;SDS011;29549;40.386;-3.710;2023-12-28T00:50:52;32.57;;;22.80;;
43540;SDS011;29549;40.386;-3.710;2023-12-28T00:51:05;32.40;;;22.55;;
43540;SDS011;29549;40.386;-3.710;2023-12-28T00:51:16;30.33;;;22.13;;
43540;SDS011;29549;40.386;-3.710;2023-12-28T00:51:26;33.60;;;22.75;;
43540;SDS011;29549;40.386;-3.710;2023-12-28T00:51:37;33.70;;;23.17;;
43540;SDS011;29549;40.386;-3.710;2023-12-28T00:51:48;35.57;;;23.07;;
43540;SDS011;29549;40.386;-3.710;2023-12-28T00:51:59;31.95;;;22.85;;
43540;SDS011;29549;40.386;-3.710;2023-12-28T00:52:09;29.80;;;22.25;;
43540;SDS011;29549;40.386;-3.710;2023-12-28T00:52:20;28.95;;;21.98;;
43540;SDS011;29549;40.386;-3.710;2023-12-28T00:52:31;29.35;;;22.17;;
43540;SDS011;29549;40.386;-3.710;2023-12-28T00:52:41;32.57;;;23.07;;
43540;SDS011;29549;40.386;-3.710;2023-12-28T00:52:52;31.90;;;23.17;;
43540;SDS011;29549;40.386;-3.710;2023-12-28T00:53:03;32.67;;;23.00;;
43540;SDS011;29549;40.386;-3.710;2023-12-28T00:53:14;29.67;;;22.83;;
43540;SDS011;29549;40.386;-3.710;2023-12-28T00:53:25;30.75;;;23.15;;
43540;SDS011;29549;40.386;-3.710;2023-12-28T00:53:36;31.85;;;23.45;;
43540;SDS011;29549;40.386;-3.710;2023-12-28T00:53:47;30.98;;;22.85;;
43540;SDS011;29549;40.386;-3.710;2023-12-28T00:53:58;31.37;;;22.30;;
43540;SDS011;29549;40.386;-3.710;2023-12-28T00:54:09;29.67;;;21.95;;
43540;SDS011;29549;40.386;-3.710;2023-12-28T00:54:19;30.17;;;22.65;;
43540;SDS011;29549;40.386;-3.710;2023-12-28T00:54:30;29.20;;;23.30;;
43540;SDS011;29549;40.386;-3.710;2023-12-28T00:54:41;29.52;;;23.58;;
43540;SDS011;29549;40.386;-3.710;2023-12-28T00:54:52;30.90;;;23.60;;
43540;SDS011;29549;40.386;-3.710;2023-12-28T00:55:03;32.35;;;24.13;;
43540;SDS011;29549;40.386;-3.710;2023-12-28T00:55:15;32.97;;;24.42;;
43540;SDS011;29549;40.386;-3.710;2023-12-28T00:55:25;31.73;;;23.90;;
43540;SDS011;29549;40.386;-3.710;2023-12-28T00:55:37;32.60;;;24.10;;
43540;SDS011;29549;40.386;-3.710;2023-12-28T00:55:48;32.38;;;23.65;;
43540;SDS011;29549;40.386;-3.710;2023-12-28T00:55:59;32.95;;;23.90;;
43540;SDS011;29549;40.386;-3.710;2023-12-28T00:56:10;32.58;;;23.23;;
43540;SDS011;29549;40.386;-3.710;2023-12-28T00:56:21;31.27;;;23.20;;
43540;SDS011;29549;40.386;-3.710;2023-12-28T00:56:32;31.05;;;23.30;;
43540;SDS011;29549;40.386;-3.710;2023-12-28T00:56:42;31.60;;;23.60;;
43540;SDS011;29549;40.386;-3.710;2023-12-28T00:56:53;30.40;;;22.77;;
43540;SDS011;29549;40.386;-3.710;2023-12-28T00:57:04;30.05;;;22.45;;
43540;SDS011;29549;40.386;-3.710;2023-12-28T00:57:15;30.45;;;22.67;;
43540;SDS011;29549;40.386;-3.710;2023-12-28T00:57:26;33.30;;;24.13;;
43540;SDS011;29549;40.386;-3.710;2023-12-28T00:57:36;35.38;;;24.80;;
43540;SDS011;29549;40.386;-3.710;2023-12-28T00:57:47;33.38;;;24.25;;
43540;SDS011;29549;40.386;-3.710;2023-12-28T00:57:58;31.23;;;23.13;;
43540;SDS011;29549;40.386;-3.710;2023-12-28T00:58:08;30.77;;;23.08;;
43540;SDS011;29549;40.386;-3.710;2023-12-28T00:58:19;31.70;;;23.75;;
43540;SDS011;29549;40.386;-3.710;2023-12-28T00:58:30;32.35;;;23.98;;
43540;SDS011;29549;40.386;-3.710;2023-12-28T00:58:41;31.63;;;23.52;;
43540;SDS011;29549;40.386;-3.710;2023-12-28T00:58:53;29.27;;;22.70;;
43540;SDS011;29549;40.386;-3.710;2023-12-28T00:59:05;30.38;;;23.13;;
43540;SDS011;29549;40.386;-3.710;2023-12-28T00:59:15;31.25;;;23.10;;
43540;SDS011;29549;40.386;-3.710;2023-12-28T00:59:26;31.07;;;22.73;;
43540;SDS011;29549;40.386;-3.710;2023-12-28T00:59:37;30.98;;;22.90;;
43540;SDS011;29549;40.386;-3.710;2023-12-28T00:59:48;32.72;;;23.42;;
43540;SDS011;29549;40.386;-3.710;2023-12-28T00:59:58;33.28;;;23.88;;
43540;SDS011;29549;40.386;-3.710;2023-12-28T01:00:10;32.25;;;23.63;;
43540;SDS011;29549;40.386;-3.710;2023-12-28T01:00:21;31.67;;;23.92;;
43540;SDS011;29549;40.386;-3.710;2023-12-28T01:00:32;32.20;;;23.67;;
43540;SDS011;29549;40.386;-3.710;2023-12-28T01:00:42;32.47;;;23.55;;
43540;SDS011;29549;40.386;-3.710;2023-12-28T01:00:53;31.55;;;23.10;;
43540;SDS011;29549;40.386;-3.710;2023-12-28T01:01:06;33.42;;;23.77;;
43540;SDS011;29549;40.386;-3.710;2023-12-28T01:01:17;33.75;;;23.77;;
43540;SDS011;29549;40.386;-3.710;2023-12-28T01:01:28;32.22;;;23.55;;
43540;SDS011;29549;40.386;-3.710;2023-12-28T01:01:40;32.00;;;23.13;;
43540;SDS011;29549;40.386;-3.710;2023-12-28T01:01:51;32.35;;;23.65;;
43540;SDS011;29549;40.386;-3.710;2023-12-28T01:02:02;32.03;;;23.35;;
43540;SDS011;29549;40.386;-3.710;2023-12-28T01:02:13;31.83;;;23.08;;
43540;SDS011;29549;40.386;-3.710;2023-12-28T01:02:23;30.20;;;22.40;;
43540;SDS011;29549;40.386;-3.710;2023-12-28T01:02:34;30.97;;;22.50;;
43540;SDS011;29549;40.386;-3.710;2023-12-28T01:02:45;30.00;;;22.50;;
43540;SDS011;29549;40.386;-3.710;2023-12-28T01:02:57;31.20;;;23.20;;